Hilversum Aerodrome

METAR EHDL TAF EHVK
0 °C
°C
-
°C
30m
Âge
20:24:48
LT
19:24
UTC
0 ft

1.000

2.000

3.000

4.000

5.000

VFR
<?= Yii::t('app', 'Wind direction') ?> <?= Yii::t('app', 'of'); ?>
340°
08:08
Lever du soleil
93%
Humidité
Cisaillement du vent
Fermé/neige
Portée visuelle RWY
Condition RWY
Visibilité vert.
Visibilité min.
CAVOK
Tendance
Correction
Rapport spécial
1040 hPa
QNH
METAR EHDL 061855Z AUTO 34001KT 9999 NCD M00/M01 Q1040 BLU
Aucun nuage
1 kt
1 kt
20:00
LIFR
2 kt
21:00
LIFR
2 kt
22:00
LIFR
4 kt
23:00
LIFR
4 kt
00:00
IFR
4 kt
01:00
IFR
4 kt
02:00
IFR
4 kt
10 km+
Vue
Non
Base cloud
1 kt
Vent
metar-taf.com/EHHV

Metar-Taf.com

Décodeur visuel

Nous et des tiers suivons ton comportement Internet sur notre site Web à l'aide de cookies. Si tu continues, nous supposons que tu es d'accord avec notre Politique en matière de cookies.